sensor_id;sensor_type;location;lat;lon;timestamp;P1;durP1;ratioP1;P2;durP2;ratioP2
17173;SDS011;8702;48.130;-1.696;2023-12-20T00:00:52;9.70;;;2.80;;
17173;SDS011;8702;48.130;-1.696;2023-12-20T00:03:19;10.60;;;2.92;;
17173;SDS011;8702;48.130;-1.696;2023-12-20T00:05:46;11.60;;;3.00;;
17173;SDS011;8702;48.130;-1.696;2023-12-20T00:08:15;11.63;;;2.85;;
17173;SDS011;8702;48.130;-1.696;2023-12-20T00:10:42;14.13;;;3.10;;
17173;SDS011;8702;48.130;-1.696;2023-12-20T00:13:09;10.32;;;2.83;;
17173;SDS011;8702;48.130;-1.696;2023-12-20T00:15:37;9.35;;;2.58;;
17173;SDS011;8702;48.130;-1.696;2023-12-20T00:18:04;10.13;;;2.97;;
17173;SDS011;8702;48.130;-1.696;2023-12-20T00:20:31;12.20;;;2.88;;
17173;SDS011;8702;48.130;-1.696;2023-12-20T00:22:58;11.63;;;3.00;;
17173;SDS011;8702;48.130;-1.696;2023-12-20T00:25:27;10.83;;;2.93;;
17173;SDS011;8702;48.130;-1.696;2023-12-20T00:27:54;10.38;;;2.85;;
17173;SDS011;8702;48.130;-1.696;2023-12-20T00:30:21;10.18;;;2.83;;
17173;SDS011;8702;48.130;-1.696;2023-12-20T00:32:48;11.60;;;3.25;;
17173;SDS011;8702;48.130;-1.696;2023-12-20T00:35:15;10.40;;;2.85;;
17173;SDS011;8702;48.130;-1.696;2023-12-20T00:37:43;13.30;;;2.88;;
17173;SDS011;8702;48.130;-1.696;2023-12-20T00:40:10;8.95;;;2.95;;
17173;SDS011;8702;48.130;-1.696;2023-12-20T00:42:39;9.77;;;2.90;;
17173;SDS011;8702;48.130;-1.696;2023-12-20T00:45:06;10.07;;;2.67;;
17173;SDS011;8702;48.130;-1.696;2023-12-20T00:47:33;13.95;;;3.35;;
17173;SDS011;8702;48.130;-1.696;2023-12-20T00:50:00;9.82;;;2.70;;
17173;SDS011;8702;48.130;-1.696;2023-12-20T00:52:28;9.17;;;3.00;;
17173;SDS011;8702;48.130;-1.696;2023-12-20T00:54:55;11.95;;;2.97;;
17173;SDS011;8702;48.130;-1.696;2023-12-20T00:57:22;9.65;;;3.22;;
17173;SDS011;8702;48.130;-1.696;2023-12-20T00:59:51;11.18;;;3.17;;
17173;SDS011;8702;48.130;-1.696;2023-12-20T01:02:19;11.75;;;3.08;;
17173;SDS011;8702;48.130;-1.696;2023-12-20T01:04:46;11.60;;;3.00;;
17173;SDS011;8702;48.130;-1.696;2023-12-20T01:07:13;9.83;;;3.00;;
17173;SDS011;8702;48.130;-1.696;2023-12-20T01:09:40;10.55;;;2.85;;
17173;SDS011;8702;48.130;-1.696;2023-12-20T01:12:07;11.98;;;3.17;;
17173;SDS011;8702;48.130;-1.696;2023-12-20T01:14:34;11.47;;;3.10;;
17173;SDS011;8702;48.130;-1.696;2023-12-20T01:17:03;10.60;;;3.08;;
17173;SDS011;8702;48.130;-1.696;2023-12-20T01:19:30;14.75;;;3.22;;
17173;SDS011;8702;48.130;-1.696;2023-12-20T01:21:57;9.82;;;2.63;;
17173;SDS011;8702;48.130;-1.696;2023-12-20T01:24:24;10.65;;;2.90;;
17173;SDS011;8702;48.130;-1.696;2023-12-20T01:26:51;11.10;;;3.17;;
17173;SDS011;8702;48.130;-1.696;2023-12-20T01:29:18;13.13;;;3.20;;
17173;SDS011;8702;48.130;-1.696;2023-12-20T01:31:45;9.52;;;2.97;;
17173;SDS011;8702;48.130;-1.696;2023-12-20T01:34:14;13.48;;;2.92;;
17173;SDS011;8702;48.130;-1.696;2023-12-20T01:36:41;13.27;;;3.20;;
17173;SDS011;8702;48.130;-1.696;2023-12-20T01:39:08;14.00;;;3.40;;
17173;SDS011;8702;48.130;-1.696;2023-12-20T01:41:35;12.00;;;3.03;;
17173;SDS011;8702;48.130;-1.696;2023-12-20T01:44:03;10.45;;;3.40;;
17173;SDS011;8702;48.130;-1.696;2023-12-20T01:46:30;10.00;;;3.00;;
17173;SDS011;8702;48.130;-1.696;2023-12-20T01:48:57;12.40;;;3.03;;
17173;SDS011;8702;48.130;-1.696;2023-12-20T01:51:26;10.30;;;2.78;;
17173;SDS011;8702;48.130;-1.696;2023-12-20T01:53:54;8.43;;;2.60;;
17173;SDS011;8702;48.130;-1.696;2023-12-20T01:56:21;12.43;;;2.70;;
17173;SDS011;8702;48.130;-1.696;2023-12-20T01:58:48;11.45;;;2.92;;
17173;SDS011;8702;48.130;-1.696;2023-12-20T02:01:16;11.70;;;2.92;;
17173;SDS011;8702;48.130;-1.696;2023-12-20T02:03:43;10.23;;;2.58;;
17173;SDS011;8702;48.130;-1.696;2023-12-20T02:06:10;9.05;;;2.63;;
17173;SDS011;8702;48.130;-1.696;2023-12-20T02:08:39;7.78;;;2.65;;
17173;SDS011;8702;48.130;-1.696;2023-12-20T02:11:06;10.80;;;2.70;;
17173;SDS011;8702;48.130;-1.696;2023-12-20T02:13:34;13.60;;;3.10;;
17173;SDS011;8702;48.130;-1.696;2023-12-20T02:16:01;10.75;;;2.78;;
17173;SDS011;8702;48.130;-1.696;2023-12-20T02:18:28;13.73;;;3.15;;
17173;SDS011;8702;48.130;-1.696;2023-12-20T02:20:55;10.73;;;2.83;;
17173;SDS011;8702;48.130;-1.696;2023-12-20T02:23:24;11.95;;;3.20;;
17173;SDS011;8702;48.130;-1.696;2023-12-20T02:25:51;13.25;;;2.92;;
17173;SDS011;8702;48.130;-1.696;2023-12-20T02:28:21;9.63;;;2.80;;
17173;SDS011;8702;48.130;-1.696;2023-12-20T02:30:48;13.70;;;3.08;;
17173;SDS011;8702;48.130;-1.696;2023-12-20T02:33:15;10.85;;;3.25;;
17173;SDS011;8702;48.130;-1.696;2023-12-20T02:35:43;12.98;;;3.28;;
17173;SDS011;8702;48.130;-1.696;2023-12-20T02:38:10;12.07;;;2.90;;
17173;SDS011;8702;48.130;-1.696;2023-12-20T02:40:38;11.85;;;2.97;;
17173;SDS011;8702;48.130;-1.696;2023-12-20T02:43:06;9.60;;;2.80;;
17173;SDS011;8702;48.130;-1.696;2023-12-20T02:45:33;10.18;;;2.70;;
17173;SDS011;8702;48.130;-1.696;2023-12-20T02:48:00;10.10;;;2.85;;
17173;SDS011;8702;48.130;-1.696;2023-12-20T02:50:27;10.32;;;2.80;;
17173;SDS011;8702;48.130;-1.696;2023-12-20T02:52:54;10.07;;;2.73;;
17173;SDS011;8702;48.130;-1.696;2023-12-20T02:55:21;10.63;;;3.13;;
17173;SDS011;8702;48.130;-1.696;2023-12-20T02:57:50;9.25;;;3.00;;
17173;SDS011;8702;48.130;-1.696;2023-12-20T03:00:17;11.15;;;2.72;;
17173;SDS011;8702;48.130;-1.696;2023-12-20T03:02:44;10.10;;;2.97;;
17173;SDS011;8702;48.130;-1.696;2023-12-20T03:05:11;13.55;;;3.50;;
17173;SDS011;8702;48.130;-1.696;2023-12-20T03:07:38;10.60;;;2.67;;
17173;SDS011;8702;48.130;-1.696;2023-12-20T03:10:06;8.53;;;2.80;;
17173;SDS011;8702;48.130;-1.696;2023-12-20T03:12:34;10.95;;;2.95;;
17173;SDS011;8702;48.130;-1.696;2023-12-20T03:15:03;9.32;;;3.00;;
17173;SDS011;8702;48.130;-1.696;2023-12-20T03:17:30;9.93;;;3.08;;
17173;SDS011;8702;48.130;-1.696;2023-12-20T03:19:57;11.27;;;2.70;;
17173;SDS011;8702;48.130;-1.696;2023-12-20T03:22:24;9.93;;;2.67;;
17173;SDS011;8702;48.130;-1.696;2023-12-20T03:24:51;8.13;;;2.40;;
17173;SDS011;8702;48.130;-1.696;2023-12-20T03:27:19;11.82;;;3.20;;
17173;SDS011;8702;48.130;-1.696;2023-12-20T03:29:46;8.73;;;2.60;;
17173;SDS011;8702;48.130;-1.696;2023-12-20T03:32:14;9.43;;;3.17;;
17173;SDS011;8702;48.130;-1.696;2023-12-20T03:34:41;10.20;;;2.80;;
17173;SDS011;8702;48.130;-1.696;2023-12-20T03:37:08;9.95;;;2.38;;
17173;SDS011;8702;48.130;-1.696;2023-12-20T03:39:36;10.67;;;2.60;;
17173;SDS011;8702;48.130;-1.696;2023-12-20T03:42:03;8.05;;;2.60;;
17173;SDS011;8702;48.130;-1.696;2023-12-20T03:44:30;8.30;;;2.25;;
17173;SDS011;8702;48.130;-1.696;2023-12-20T03:46:57;9.93;;;2.50;;
17173;SDS011;8702;48.130;-1.696;2023-12-20T03:49:26;9.27;;;2.70;;
17173;SDS011;8702;48.130;-1.696;2023-12-20T03:51:53;7.90;;;2.40;;
17173;SDS011;8702;48.130;-1.696;2023-12-20T03:54:20;10.33;;;2.67;;
17173;SDS011;8702;48.130;-1.696;2023-12-20T03:56:47;6.82;;;2.10;;
17173;SDS011;8702;48.130;-1.696;2023-12-20T03:59:14;7.82;;;2.30;;
17173;SDS011;8702;48.130;-1.696;2023-12-20T04:01:42;8.45;;;2.50;;
17173;SDS011;8702;48.130;-1.696;2023-12-20T04:04:10;10.50;;;2.90;;
17173;SDS011;8702;48.130;-1.696;2023-12-20T04:06:39;9.77;;;2.50;;
17173;SDS011;8702;48.130;-1.696;2023-12-20T04:09:06;9.23;;;2.50;;
17173;SDS011;8702;48.130;-1.696;2023-12-20T04:11:34;9.48;;;2.50;;
17173;SDS011;8702;48.130;-1.696;2023-12-20T04:14:01;10.32;;;2.65;;
17173;SDS011;8702;48.130;-1.696;2023-12-20T04:16:29;7.68;;;2.45;;
17173;SDS011;8702;48.130;-1.696;2023-12-20T04:18:57;9.10;;;2.63;;
17173;SDS011;8702;48.130;-1.696;2023-12-20T04:21:24;7.82;;;2.42;;
17173;SDS011;8702;48.130;-1.696;2023-12-20T04:23:52;7.85;;;2.38;;
17173;SDS011;8702;48.130;-1.696;2023-12-20T04:26:19;6.50;;;2.10;;
17173;SDS011;8702;48.130;-1.696;2023-12-20T04:28:46;6.85;;;2.17;;
17173;SDS011;8702;48.130;-1.696;2023-12-20T04:31:14;8.68;;;2.33;;
17173;SDS011;8702;48.130;-1.696;2023-12-20T04:33:41;9.68;;;2.80;;
17173;SDS011;8702;48.130;-1.696;2023-12-20T04:36:08;6.72;;;2.10;;
17173;SDS011;8702;48.130;-1.696;2023-12-20T04:38:35;9.73;;;2.65;;
17173;SDS011;8702;48.130;-1.696;2023-12-20T04:41:04;10.00;;;2.50;;
17173;SDS011;8702;48.130;-1.696;2023-12-20T04:43:31;6.78;;;2.42;;
17173;SDS011;8702;48.130;-1.696;2023-12-20T04:45:58;9.85;;;2.30;;
17173;SDS011;8702;48.130;-1.696;2023-12-20T04:48:25;8.10;;;2.40;;
17173;SDS011;8702;48.130;-1.696;2023-12-20T04:50:52;8.57;;;2.40;;
17173;SDS011;8702;48.130;-1.696;2023-12-20T04:53:19;8.43;;;2.17;;
17173;SDS011;8702;48.130;-1.696;2023-12-20T04:55:46;11.93;;;2.58;;
17173;SDS011;8702;48.130;-1.696;2023-12-20T04:58:15;7.38;;;2.40;;
17173;SDS011;8702;48.130;-1.696;2023-12-20T05:00:42;10.23;;;2.92;;
17173;SDS011;8702;48.130;-1.696;2023-12-20T05:03:09;12.27;;;2.75;;
17173;SDS011;8702;48.130;-1.696;2023-12-20T05:05:36;8.50;;;2.70;;
17173;SDS011;8702;48.130;-1.696;2023-12-20T05:08:04;10.13;;;2.35;;
17173;SDS011;8702;48.130;-1.696;2023-12-20T05:10:31;10.25;;;2.50;;
17173;SDS011;8702;48.130;-1.696;2023-12-20T05:12:58;10.88;;;2.45;;
17173;SDS011;8702;48.130;-1.696;2023-12-20T05:15:26;8.60;;;2.55;;
17173;SDS011;8702;48.130;-1.696;2023-12-20T05:17:54;7.70;;;2.22;;
17173;SDS011;8702;48.130;-1.696;2023-12-20T05:20:21;7.90;;;2.47;;
17173;SDS011;8702;48.130;-1.696;2023-12-20T05:22:48;9.45;;;2.40;;
17173;SDS011;8702;48.130;-1.696;2023-12-20T05:25:15;8.93;;;2.58;;
17173;SDS011;8702;48.130;-1.696;2023-12-20T05:27:42;7.80;;;2.70;;
17173;SDS011;8702;48.130;-1.696;2023-12-20T05:30:10;7.82;;;2.45;;
17173;SDS011;8702;48.130;-1.696;2023-12-20T05:32:38;7.65;;;2.30;;
17173;SDS011;8702;48.130;-1.696;2023-12-20T05:35:05;8.73;;;2.40;;
17173;SDS011;8702;48.130;-1.696;2023-12-20T05:37:33;9.43;;;2.70;;
17173;SDS011;8702;48.130;-1.696;2023-12-20T05:40:00;7.95;;;2.58;;
17173;SDS011;8702;48.130;-1.696;2023-12-20T05:42:27;10.93;;;2.90;;
17173;SDS011;8702;48.130;-1.696;2023-12-20T05:44:54;9.95;;;2.58;;
17173;SDS011;8702;48.130;-1.696;2023-12-20T05:47:21;9.63;;;2.72;;
17173;SDS011;8702;48.130;-1.696;2023-12-20T05:49:50;13.10;;;2.70;;
17173;SDS011;8702;48.130;-1.696;2023-12-20T05:52:17;8.85;;;2.45;;
17173;SDS011;8702;48.130;-1.696;2023-12-20T05:54:44;8.82;;;2.63;;
17173;SDS011;8702;48.130;-1.696;2023-12-20T05:57:11;9.48;;;2.50;;
17173;SDS011;8702;48.130;-1.696;2023-12-20T05:59:38;11.60;;;2.60;;
17173;SDS011;8702;48.130;-1.696;2023-12-20T06:02:05;9.45;;;2.50;;
17173;SDS011;8702;48.130;-1.696;2023-12-20T06:04:33;8.20;;;2.42;;
17173;SDS011;8702;48.130;-1.696;2023-12-20T06:07:02;10.57;;;2.50;;
17173;SDS011;8702;48.130;-1.696;2023-12-20T06:09:29;7.85;;;2.70;;
17173;SDS011;8702;48.130;-1.696;2023-12-20T06:11:56;6.72;;;2.30;;
17173;SDS011;8702;48.130;-1.696;2023-12-20T06:14:23;10.02;;;2.53;;
17173;SDS011;8702;48.130;-1.696;2023-12-20T06:16:50;6.95;;;2.50;;
17173;SDS011;8702;48.130;-1.696;2023-12-20T06:19:18;10.98;;;2.30;;
17173;SDS011;8702;48.130;-1.696;2023-12-20T06:21:45;11.43;;;2.88;;
17173;SDS011;8702;48.130;-1.696;2023-12-20T06:24:13;9.50;;;2.40;;
17173;SDS011;8702;48.130;-1.696;2023-12-20T06:26:40;8.52;;;2.75;;
17173;SDS011;8702;48.130;-1.696;2023-12-20T06:29:07;13.15;;;3.30;;
17173;SDS011;8702;48.130;-1.696;2023-12-20T06:31:35;10.63;;;2.85;;
17173;SDS011;8702;48.130;-1.696;2023-12-20T06:34:02;9.57;;;2.40;;
17173;SDS011;8702;48.130;-1.696;2023-12-20T06:36:29;9.02;;;2.75;;
17173;SDS011;8702;48.130;-1.696;2023-12-20T06:38:56;9.02;;;2.95;;
17173;SDS011;8702;48.130;-1.696;2023-12-20T06:41:25;10.88;;;2.67;;
17173;SDS011;8702;48.130;-1.696;2023-12-20T06:43:52;7.87;;;2.67;;
17173;SDS011;8702;48.130;-1.696;2023-12-20T06:46:19;10.93;;;2.65;;
17173;SDS011;8702;48.130;-1.696;2023-12-20T06:48:46;7.20;;;2.47;;
17173;SDS011;8702;48.130;-1.696;2023-12-20T06:51:14;10.63;;;2.90;;
17173;SDS011;8702;48.130;-1.696;2023-12-20T06:53:41;8.70;;;2.95;;
17173;SDS011;8702;48.130;-1.696;2023-12-20T06:56:09;10.57;;;3.00;;
17173;SDS011;8702;48.130;-1.696;2023-12-20T06:58:38;9.98;;;3.08;;
17173;SDS011;8702;48.130;-1.696;2023-12-20T07:01:06;9.23;;;2.60;;
17173;SDS011;8702;48.130;-1.696;2023-12-20T07:03:37;13.20;;;3.08;;
17173;SDS011;8702;48.130;-1.696;2023-12-20T07:06:04;9.10;;;2.63;;
17173;SDS011;8702;48.130;-1.696;2023-12-20T07:08:31;10.40;;;2.95;;
17173;SDS011;8702;48.130;-1.696;2023-12-20T07:10:58;10.10;;;3.15;;
17173;SDS011;8702;48.130;-1.696;2023-12-20T07:13:26;8.73;;;3.17;;
17173;SDS011;8702;48.130;-1.696;2023-12-20T07:15:54;9.90;;;3.10;;
17173;SDS011;8702;48.130;-1.696;2023-12-20T07:18:21;9.93;;;2.63;;
17173;SDS011;8702;48.130;-1.696;2023-12-20T07:20:48;10.68;;;2.88;;
17173;SDS011;8702;48.130;-1.696;2023-12-20T07:23:15;8.98;;;2.97;;
17173;SDS011;8702;48.130;-1.696;2023-12-20T07:25:44;11.43;;;3.00;;
17173;SDS011;8702;48.130;-1.696;2023-12-20T07:28:11;9.47;;;2.63;;
17173;SDS011;8702;48.130;-1.696;2023-12-20T07:30:38;11.15;;;3.03;;
17173;SDS011;8702;48.130;-1.696;2023-12-20T07:33:07;10.60;;;2.85;;
17173;SDS011;8702;48.130;-1.696;2023-12-20T07:35:35;12.10;;;2.60;;
17173;SDS011;8702;48.130;-1.696;2023-12-20T07:38:02;13.18;;;2.97;;
17173;SDS011;8702;48.130;-1.696;2023-12-20T07:40:29;7.93;;;2.50;;
17173;SDS011;8702;48.130;-1.696;2023-12-20T07:42:56;10.82;;;2.90;;
17173;SDS011;8702;48.130;-1.696;2023-12-20T07:45:24;10.35;;;3.00;;
17173;SDS011;8702;48.130;-1.696;2023-12-20T07:47:51;8.48;;;2.75;;
17173;SDS011;8702;48.130;-1.696;2023-12-20T07:50:19;13.00;;;2.90;;
17173;SDS011;8702;48.130;-1.696;2023-12-20T07:52:47;9.18;;;2.95;;
17173;SDS011;8702;48.130;-1.696;2023-12-20T07:55:14;10.63;;;3.00;;
17173;SDS011;8702;48.130;-1.696;2023-12-20T07:57:41;11.48;;;3.00;;
17173;SDS011;8702;48.130;-1.696;2023-12-20T08:00:08;13.13;;;3.17;;
17173;SDS011;8702;48.130;-1.696;2023-12-20T08:02:36;13.68;;;3.25;;
17173;SDS011;8702;48.130;-1.696;2023-12-20T08:05:03;11.65;;;3.10;;
17173;SDS011;8702;48.130;-1.696;2023-12-20T08:07:32;9.30;;;3.08;;
17173;SDS011;8702;48.130;-1.696;2023-12-20T08:09:59;10.70;;;2.93;;
17173;SDS011;8702;48.130;-1.696;2023-12-20T08:12:26;12.02;;;2.90;;
17173;SDS011;8702;48.130;-1.696;2023-12-20T08:14:53;13.77;;;3.30;;
17173;SDS011;8702;48.130;-1.696;2023-12-20T08:17:22;9.85;;;3.08;;
17173;SDS011;8702;48.130;-1.696;2023-12-20T08:19:49;14.73;;;3.70;;
17173;SDS011;8702;48.130;-1.696;2023-12-20T08:22:16;14.15;;;3.35;;
17173;SDS011;8702;48.130;-1.696;2023-12-20T08:24:44;12.50;;;3.00;;
17173;SDS011;8702;48.130;-1.696;2023-12-20T08:27:11;12.88;;;3.65;;
17173;SDS011;8702;48.130;-1.696;2023-12-20T08:29:39;12.10;;;3.45;;
17173;SDS011;8702;48.130;-1.696;2023-12-20T08:32:06;12.30;;;2.92;;
17173;SDS011;8702;48.130;-1.696;2023-12-20T08:34:33;10.65;;;3.00;;
17173;SDS011;8702;48.130;-1.696;2023-12-20T08:37:00;10.77;;;2.83;;
17173;SDS011;8702;48.130;-1.696;2023-12-20T08:39:27;12.32;;;3.00;;
17173;SDS011;8702;48.130;-1.696;2023-12-20T08:41:56;11.27;;;3.13;;
17173;SDS011;8702;48.130;-1.696;2023-12-20T08:44:23;10.82;;;3.13;;
17173;SDS011;8702;48.130;-1.696;2023-12-20T08:46:50;9.52;;;3.08;;
17173;SDS011;8702;48.130;-1.696;2023-12-20T08:49:17;9.90;;;3.05;;
17173;SDS011;8702;48.130;-1.696;2023-12-20T08:51:45;13.73;;;3.35;;
17173;SDS011;8702;48.130;-1.696;2023-12-20T08:54:12;10.15;;;2.97;;
17173;SDS011;8702;48.130;-1.696;2023-12-20T08:56:39;13.23;;;3.50;;
17173;SDS011;8702;48.130;-1.696;2023-12-20T08:59:08;11.40;;;3.20;;
17173;SDS011;8702;48.130;-1.696;2023-12-20T09:01:35;13.27;;;3.00;;
17173;SDS011;8702;48.130;-1.696;2023-12-20T09:04:02;12.95;;;3.47;;
17173;SDS011;8702;48.130;-1.696;2023-12-20T09:06:31;10.43;;;3.33;;
17173;SDS011;8702;48.130;-1.696;2023-12-20T09:08:58;9.63;;;3.22;;
17173;SDS011;8702;48.130;-1.696;2023-12-20T09:11:25;9.98;;;3.20;;
17173;SDS011;8702;48.130;-1.696;2023-12-20T09:13:52;11.57;;;3.37;;
17173;SDS011;8702;48.130;-1.696;2023-12-20T09:16:21;12.38;;;3.28;;
17173;SDS011;8702;48.130;-1.696;2023-12-20T09:18:48;10.65;;;3.08;;
17173;SDS011;8702;48.130;-1.696;2023-12-20T09:21:15;11.07;;;3.22;;
17173;SDS011;8702;48.130;-1.696;2023-12-20T09:23:42;12.88;;;3.17;;
17173;SDS011;8702;48.130;-1.696;2023-12-20T09:26:10;10.68;;;3.22;;
17173;SDS011;8702;48.130;-1.696;2023-12-20T09:28:37;15.52;;;3.40;;
17173;SDS011;8702;48.130;-1.696;2023-12-20T09:31:05;10.73;;;3.42;;
17173;SDS011;8702;48.130;-1.696;2023-12-20T09:33:34;10.52;;;3.28;;
17173;SDS011;8702;48.130;-1.696;2023-12-20T09:36:01;8.18;;;2.78;;
17173;SDS011;8702;48.130;-1.696;2023-12-20T09:38:28;11.00;;;3.08;;
17173;SDS011;8702;48.130;-1.696;2023-12-20T09:40:55;12.90;;;3.67;;
17173;SDS011;8702;48.130;-1.696;2023-12-20T09:43:23;11.25;;;3.08;;
17173;SDS011;8702;48.130;-1.696;2023-12-20T09:45:53;9.80;;;3.00;;
17173;SDS011;8702;48.130;-1.696;2023-12-20T09:48:20;12.48;;;3.17;;
17173;SDS011;8702;48.130;-1.696;2023-12-20T09:50:49;9.45;;;3.28;;
17173;SDS011;8702;48.130;-1.696;2023-12-20T09:53:16;13.75;;;3.97;;
17173;SDS011;8702;48.130;-1.696;2023-12-20T09:55:44;13.85;;;3.80;;
17173;SDS011;8702;48.130;-1.696;2023-12-20T09:58:11;10.38;;;3.10;;
17173;SDS011;8702;48.130;-1.696;2023-12-20T10:00:39;13.88;;;3.80;;
17173;SDS011;8702;48.130;-1.696;2023-12-20T10:03:06;10.63;;;3.25;;
17173;SDS011;8702;48.130;-1.696;2023-12-20T10:05:33;14.03;;;3.50;;
17173;SDS011;8702;48.130;-1.696;2023-12-20T10:08:02;15.27;;;3.17;;
17173;SDS011;8702;48.130;-1.696;2023-12-20T10:10:29;12.00;;;3.40;;
17173;SDS011;8702;48.130;-1.696;2023-12-20T10:13:03;12.90;;;4.18;;
17173;SDS011;8702;48.130;-1.696;2023-12-20T10:15:31;11.65;;;3.55;;
17173;SDS011;8702;48.130;-1.696;2023-12-20T10:17:58;9.95;;;3.58;;
17173;SDS011;8702;48.130;-1.696;2023-12-20T10:20:26;12.18;;;3.50;;
17173;SDS011;8702;48.130;-1.696;2023-12-20T10:22:54;13.25;;;3.80;;
17173;SDS011;8702;48.130;-1.696;2023-12-20T10:25:25;12.38;;;3.42;;
17173;SDS011;8702;48.130;-1.696;2023-12-20T10:30:34;12.82;;;3.55;;
17173;SDS011;8702;48.130;-1.696;2023-12-20T10:33:02;14.25;;;3.95;;
17173;SDS011;8702;48.130;-1.696;2023-12-20T10:35:29;17.55;;;3.83;;
17173;SDS011;8702;48.130;-1.696;2023-12-20T10:37:56;11.60;;;3.50;;
17173;SDS011;8702;48.130;-1.696;2023-12-20T10:40:24;13.80;;;3.67;;
17173;SDS011;8702;48.130;-1.696;2023-12-20T10:42:54;13.63;;;4.03;;
17173;SDS011;8702;48.130;-1.696;2023-12-20T10:45:22;10.57;;;3.35;;
17173;SDS011;8702;48.130;-1.696;2023-12-20T10:47:50;13.32;;;3.70;;
17173;SDS011;8702;48.130;-1.696;2023-12-20T10:50:17;17.02;;;3.90;;
17173;SDS011;8702;48.130;-1.696;2023-12-20T10:52:45;13.70;;;3.65;;
17173;SDS011;8702;48.130;-1.696;2023-12-20T10:55:12;12.70;;;3.45;;
17173;SDS011;8702;48.130;-1.696;2023-12-20T10:57:41;12.90;;;3.30;;
17173;SDS011;8702;48.130;-1.696;2023-12-20T11:00:09;13.00;;;3.57;;
17173;SDS011;8702;48.130;-1.696;2023-12-20T11:02:39;12.60;;;3.50;;
17173;SDS011;8702;48.130;-1.696;2023-12-20T11:05:07;12.55;;;3.50;;
17173;SDS011;8702;48.130;-1.696;2023-12-20T11:07:38;12.30;;;3.40;;
17173;SDS011;8702;48.130;-1.696;2023-12-20T11:10:10;12.80;;;3.50;;
17173;SDS011;8702;48.130;-1.696;2023-12-20T11:12:38;13.88;;;4.00;;
17173;SDS011;8702;48.130;-1.696;2023-12-20T11:15:09;14.60;;;3.83;;
17173;SDS011;8702;48.130;-1.696;2023-12-20T11:17:38;15.02;;;4.03;;
17173;SDS011;8702;48.130;-1.696;2023-12-20T11:20:07;13.90;;;3.80;;
17173;SDS011;8702;48.130;-1.696;2023-12-20T11:22:36;14.50;;;3.97;;
17173;SDS011;8702;48.130;-1.696;2023-12-20T11:25:07;13.85;;;3.85;;
17173;SDS011;8702;48.130;-1.696;2023-12-20T11:27:34;11.15;;;3.58;;
17173;SDS011;8702;48.130;-1.696;2023-12-20T11:30:03;17.67;;;4.40;;
17173;SDS011;8702;48.130;-1.696;2023-12-20T11:32:35;15.98;;;4.18;;
17173;SDS011;8702;48.130;-1.696;2023-12-20T11:35:16;17.45;;;4.00;;
17173;SDS011;8702;48.130;-1.696;2023-12-20T11:37:43;15.60;;;4.43;;
17173;SDS011;8702;48.130;-1.696;2023-12-20T11:40:13;16.23;;;4.30;;
17173;SDS011;8702;48.130;-1.696;2023-12-20T11:42:40;14.73;;;4.22;;
17173;SDS011;8702;48.130;-1.696;2023-12-20T11:45:08;15.10;;;4.85;;
17173;SDS011;8702;48.130;-1.696;2023-12-20T11:47:37;17.00;;;4.60;;
17173;SDS011;8702;48.130;-1.696;2023-12-20T11:50:04;16.73;;;4.78;;
17173;SDS011;8702;48.130;-1.696;2023-12-20T11:52:32;15.25;;;4.70;;
17173;SDS011;8702;48.130;-1.696;2023-12-20T11:54:59;16.27;;;4.15;;
17173;SDS011;8702;48.130;-1.696;2023-12-20T11:57:26;15.15;;;4.05;;
17173;SDS011;8702;48.130;-1.696;2023-12-20T11:59:53;12.65;;;4.05;;
17173;SDS011;8702;48.130;-1.696;2023-12-20T12:02:21;14.20;;;4.27;;
17173;SDS011;8702;48.130;-1.696;2023-12-20T12:04:50;16.37;;;3.97;;
17173;SDS011;8702;48.130;-1.696;2023-12-20T12:07:17;15.15;;;4.53;;
17173;SDS011;8702;48.130;-1.696;2023-12-20T12:09:45;11.93;;;3.72;;
17173;SDS011;8702;48.130;-1.696;2023-12-20T12:12:12;13.32;;;3.97;;
17173;SDS011;8702;48.130;-1.696;2023-12-20T12:14:39;14.98;;;4.20;;
17173;SDS011;8702;48.130;-1.696;2023-12-20T12:17:09;15.00;;;3.73;;
17173;SDS011;8702;48.130;-1.696;2023-12-20T12:19:38;13.90;;;3.33;;
17173;SDS011;8702;48.130;-1.696;2023-12-20T12:22:06;11.98;;;3.42;;
17173;SDS011;8702;48.130;-1.696;2023-12-20T12:24:36;12.93;;;3.58;;
17173;SDS011;8702;48.130;-1.696;2023-12-20T12:27:05;15.57;;;3.65;;
17173;SDS011;8702;48.130;-1.696;2023-12-20T12:29:32;14.20;;;3.37;;
17173;SDS011;8702;48.130;-1.696;2023-12-20T12:32:00;12.85;;;3.65;;
17173;SDS011;8702;48.130;-1.696;2023-12-20T12:34:27;12.83;;;3.23;;
17173;SDS011;8702;48.130;-1.696;2023-12-20T12:36:54;10.35;;;2.90;;
17173;SDS011;8702;48.130;-1.696;2023-12-20T12:39:23;14.27;;;3.38;;
17173;SDS011;8702;48.130;-1.696;2023-12-20T12:41:51;9.90;;;3.30;;
17173;SDS011;8702;48.130;-1.696;2023-12-20T12:44:18;14.32;;;3.78;;
17173;SDS011;8702;48.130;-1.696;2023-12-20T12:46:47;10.65;;;2.92;;
17173;SDS011;8702;48.130;-1.696;2023-12-20T12:49:16;14.60;;;4.05;;
17173;SDS011;8702;48.130;-1.696;2023-12-20T12:51:43;11.23;;;3.40;;
17173;SDS011;8702;48.130;-1.696;2023-12-20T12:54:11;15.60;;;3.72;;
17173;SDS011;8702;48.130;-1.696;2023-12-20T12:56:42;12.75;;;3.63;;
17173;SDS011;8702;48.130;-1.696;2023-12-20T12:59:09;12.75;;;3.25;;
17173;SDS011;8702;48.130;-1.696;2023-12-20T13:01:37;13.95;;;3.88;;
17173;SDS011;8702;48.130;-1.696;2023-12-20T13:04:05;11.73;;;3.70;;
17173;SDS011;8702;48.130;-1.696;2023-12-20T13:06:35;15.57;;;3.70;;
17173;SDS011;8702;48.130;-1.696;2023-12-20T13:09:02;14.93;;;4.00;;
17173;SDS011;8702;48.130;-1.696;2023-12-20T13:11:30;12.70;;;3.65;;
17173;SDS011;8702;48.130;-1.696;2023-12-20T13:13:59;12.70;;;3.60;;
17173;SDS011;8702;48.130;-1.696;2023-12-20T13:16:26;15.02;;;3.22;;
17173;SDS011;8702;48.130;-1.696;2023-12-20T13:18:53;13.70;;;3.50;;
17173;SDS011;8702;48.130;-1.696;2023-12-20T13:21:21;11.35;;;3.47;;
17173;SDS011;8702;48.130;-1.696;2023-12-20T13:23:48;13.23;;;3.53;;
17173;SDS011;8702;48.130;-1.696;2023-12-20T13:26:15;12.50;;;3.58;;
17173;SDS011;8702;48.130;-1.696;2023-12-20T13:28:42;11.95;;;3.35;;
17173;SDS011;8702;48.130;-1.696;2023-12-20T13:31:11;13.80;;;3.50;;
17173;SDS011;8702;48.130;-1.696;2023-12-20T13:33:38;13.35;;;3.40;;
17173;SDS011;8702;48.130;-1.696;2023-12-20T13:36:05;9.43;;;2.90;;
17173;SDS011;8702;48.130;-1.696;2023-12-20T13:38:33;11.77;;;3.42;;
17173;SDS011;8702;48.130;-1.696;2023-12-20T13:41:00;12.97;;;3.20;;
17173;SDS011;8702;48.130;-1.696;2023-12-20T13:43:27;10.32;;;3.00;;
17173;SDS011;8702;48.130;-1.696;2023-12-20T13:45:54;9.80;;;3.00;;
17173;SDS011;8702;48.130;-1.696;2023-12-20T13:48:22;12.10;;;2.87;;
17173;SDS011;8702;48.130;-1.696;2023-12-20T13:50:49;8.95;;;2.58;;
17173;SDS011;8702;48.130;-1.696;2023-12-20T13:53:17;11.35;;;2.55;;
17173;SDS011;8702;48.130;-1.696;2023-12-20T13:55:44;10.82;;;2.72;;
17173;SDS011;8702;48.130;-1.696;2023-12-20T13:58:11;12.85;;;3.10;;
17173;SDS011;8702;48.130;-1.696;2023-12-20T14:00:38;10.30;;;3.20;;
17173;SDS011;8702;48.130;-1.696;2023-12-20T14:03:05;11.95;;;3.00;;
17173;SDS011;8702;48.130;-1.696;2023-12-20T14:05:34;9.57;;;2.90;;
17173;SDS011;8702;48.130;-1.696;2023-12-20T14:08:02;11.55;;;3.20;;
17173;SDS011;8702;48.130;-1.696;2023-12-20T14:10:29;11.48;;;3.17;;
17173;SDS011;8702;48.130;-1.696;2023-12-20T14:12:56;12.33;;;3.20;;
17173;SDS011;8702;48.130;-1.696;2023-12-20T14:15:23;11.77;;;3.35;;
17173;SDS011;8702;48.130;-1.696;2023-12-20T14:17:51;10.87;;;2.80;;
17173;SDS011;8702;48.130;-1.696;2023-12-20T14:20:19;10.88;;;2.90;;
17173;SDS011;8702;48.130;-1.696;2023-12-20T14:22:48;11.77;;;2.72;;
17173;SDS011;8702;48.130;-1.696;2023-12-20T14:25:15;9.00;;;2.95;;
17173;SDS011;8702;48.130;-1.696;2023-12-20T14:27:42;10.20;;;3.05;;
17173;SDS011;8702;48.130;-1.696;2023-12-20T14:30:09;9.57;;;3.00;;
17173;SDS011;8702;48.130;-1.696;2023-12-20T14:32:39;11.93;;;2.85;;
17173;SDS011;8702;48.130;-1.696;2023-12-20T14:35:06;9.55;;;2.78;;
17173;SDS011;8702;48.130;-1.696;2023-12-20T14:37:34;9.50;;;2.80;;
17173;SDS011;8702;48.130;-1.696;2023-12-20T14:40:05;9.48;;;2.67;;
17173;SDS011;8702;48.130;-1.696;2023-12-20T14:42:35;10.93;;;2.78;;